Time,TemperatureF,DewpointF,PressureIn,WindDirection,WindDirectionDegrees,WindSpeedMPH,WindSpeedGustMPH,Humidity,HourlyPrecipIn,Conditions,Clouds,dailyrainin,SolarRadiationWatts/m^2,SoftwareType,DateUTC
2013-04-15 00:02:00,69.0,50.0,-100.00,SW,225,11.0,21.0,51,0.00,,,0.00,0.000000,,2013-04-15 07:02:00,
2013-04-15 00:53:00,67.0,51.0,-100.00,SW,229,8.0,17.0,57,0.00,,,0.00,0.000000,,2013-04-15 07:53:00,
2013-04-15 01:02:00,67.0,51.0,-100.00,SW,229,8.0,17.0,57,0.00,,,0.00,0.000000,,2013-04-15 08:02:00,
2013-04-15 01:12:00,67.0,51.0,-100.00,SW,229,8.0,17.0,57,0.00,,,0.00,0.000000,,2013-04-15 08:12:00,
2013-04-15 01:21:00,67.0,51.0,-100.00,SW,229,8.0,17.0,57,0.00,,,0.00,0.000000,,2013-04-15 08:21:00,
2013-04-15 01:52:00,67.0,53.0,-100.00,SW,217,9.0,18.0,61,0.00,,,0.00,0.000000,,2013-04-15 08:52:00,
2013-04-15 02:12:00,67.0,53.0,-100.00,SW,217,9.0,18.0,61,0.00,,,0.00,0.000000,,2013-04-15 09:12:00,
2013-04-15 02:22:00,67.0,53.0,-100.00,SW,217,9.0,18.0,61,0.00,,,0.00,0.000000,,2013-04-15 09:22:00,
2013-04-15 02:53:00,66.0,53.0,-100.00,SW,229,8.0,15.0,63,0.00,,,0.00,0.000000,,2013-04-15 09:53:00,
2013-04-15 03:02:00,66.0,53.0,-100.00,SW,229,8.0,15.0,63,0.00,,,0.00,0.000000,,2013-04-15 10:02:00,
2013-04-15 03:12:00,66.0,53.0,-100.00,SW,229,8.0,15.0,63,0.00,,,0.00,0.000000,,2013-04-15 10:12:00,
2013-04-15 03:22:00,66.0,53.0,-100.00,SW,229,8.0,15.0,63,0.00,,,0.00,0.000000,,2013-04-15 10:22:00,
2013-04-15 03:53:00,64.0,54.0,-100.00,SW,220,6.0,14.0,71,0.00,,,0.00,0.000000,,2013-04-15 10:53:00,
2013-04-15 04:03:00,64.0,54.0,-100.00,SW,220,6.0,14.0,71,0.00,,,0.00,0.000000,,2013-04-15 11:03:00,
2013-04-15 04:12:00,64.0,54.0,-100.00,SW,220,6.0,14.0,71,0.00,,,0.00,0.000000,,2013-04-15 11:12:00,
2013-04-15 04:22:00,64.0,54.0,-100.00,SW,220,6.0,14.0,71,0.00,,,0.00,0.000000,,2013-04-15 11:22:00,
2013-04-15 04:53:00,63.0,55.0,-100.00,SW,220,8.0,13.0,75,0.00,,,0.00,0.000000,,2013-04-15 11:53:00,
2013-04-15 05:03:00,63.0,55.0,-100.00,SW,220,8.0,13.0,75,0.00,,,0.00,0.000000,,2013-04-15 12:03:00,
2013-04-15 05:13:00,63.0,55.0,-100.00,SW,220,8.0,13.0,75,0.00,,,0.00,0.000000,,2013-04-15 12:13:00,
2013-04-15 05:22:00,63.0,55.0,-100.00,SW,220,8.0,13.0,75,0.00,,,0.00,0.000000,,2013-04-15 12:22:00,
2013-04-15 05:53:00,61.0,52.0,-100.00,SSW,209,5.0,13.0,73,0.00,,,0.00,0.000000,,2013-04-15 12:53:00,
2013-04-15 06:03:00,61.0,52.0,-100.00,SSW,209,5.0,13.0,73,0.00,,,0.00,0.000000,,2013-04-15 13:03:00,
2013-04-15 06:12:00,61.0,52.0,-100.00,SSW,209,5.0,13.0,73,0.00,,,0.00,0.000000,,2013-04-15 13:12:00,
2013-04-15 06:22:00,61.0,52.0,-100.00,SSW,209,5.0,13.0,73,0.00,,,0.00,0.000000,,2013-04-15 13:22:00,
2013-04-15 06:53:00,62.0,52.0,-100.00,SW,221,5.0,10.0,71,0.00,,,0.00,4.000000,,2013-04-15 13:53:00,
2013-04-15 07:04:00,62.0,52.0,-100.00,SW,221,5.0,10.0,71,0.00,,,0.00,4.000000,,2013-04-15 14:04:00,
2013-04-15 07:12:00,62.0,52.0,-100.00,SW,221,5.0,10.0,71,0.00,,,0.00,4.000000,,2013-04-15 14:12:00,
2013-04-15 07:22:00,62.0,52.0,-100.00,SW,221,5.0,10.0,71,0.00,,,0.00,4.000000,,2013-04-15 14:22:00,
2013-04-15 07:54:00,63.0,50.0,-100.00,SW,225,6.0,12.0,63,0.00,,,0.00,99.000000,,2013-04-15 14:54:00,
2013-04-15 08:03:00,63.0,50.0,-100.00,SW,225,6.0,12.0,63,0.00,,,0.00,99.000000,,2013-04-15 15:03:00,
2013-04-15 08:12:00,63.0,50.0,-100.00,SW,225,6.0,12.0,63,0.00,,,0.00,99.000000,,2013-04-15 15:12:00,
2013-04-15 08:22:00,63.0,50.0,-100.00,SW,225,6.0,12.0,63,0.00,,,0.00,99.000000,,2013-04-15 15:22:00,
2013-04-15 08:54:00,67.0,45.0,-100.00,SW,229,5.0,11.0,45,0.00,,,0.00,330.000000,,2013-04-15 15:54:00,
2013-04-15 09:04:00,67.0,45.0,-100.00,SW,229,5.0,11.0,45,0.00,,,0.00,330.000000,,2013-04-15 16:04:00,
2013-04-15 09:13:00,67.0,45.0,-100.00,SW,229,5.0,11.0,45,0.00,,,0.00,330.000000,,2013-04-15 16:13:00,
2013-04-15 09:23:00,67.0,45.0,-100.00,SW,229,5.0,11.0,45,0.00,,,0.00,330.000000,,2013-04-15 16:23:00,
2013-04-15 09:54:00,69.0,42.0,-100.00,SSW,213,8.0,12.0,38,0.00,,,0.00,585.000000,,2013-04-15 16:54:00,
2013-04-15 10:03:00,69.0,42.0,-100.00,SSW,213,8.0,12.0,38,0.00,,,0.00,585.000000,,2013-04-15 17:03:00,
2013-04-15 10:14:00,69.0,42.0,-100.00,SSW,213,8.0,12.0,38,0.00,,,0.00,585.000000,,2013-04-15 17:14:00,
2013-04-15 10:21:00,69.0,42.0,-100.00,SSW,213,8.0,12.0,38,0.00,,,0.00,585.000000,,2013-04-15 17:21:00,
2013-04-15 11:03:00,74.0,47.0,-100.00,SW,228,7.0,17.0,39,0.00,,,0.00,805.000000,,2013-04-15 18:03:00,
2013-04-15 11:12:00,74.0,47.0,-100.00,SW,228,7.0,17.0,39,0.00,,,0.00,805.000000,,2013-04-15 18:12:00,
2013-04-15 11:23:00,74.0,47.0,-100.00,SW,228,7.0,17.0,39,0.00,,,0.00,805.000000,,2013-04-15 18:23:00,
2013-04-15 11:52:00,75.0,48.0,-100.00,SW,231,8.0,15.0,39,0.00,,,0.00,1064.000000,,2013-04-15 18:52:00,
2013-04-15 12:02:00,75.0,48.0,-100.00,SW,231,8.0,15.0,39,0.00,,,0.00,1064.000000,,2013-04-15 19:02:00,
2013-04-15 12:12:00,75.0,48.0,-100.00,SW,231,8.0,15.0,39,0.00,,,0.00,1064.000000,,2013-04-15 19:12:00,
2013-04-15 12:22:00,75.0,48.0,-100.00,SW,231,8.0,15.0,39,0.00,,,0.00,1064.000000,,2013-04-15 19:22:00,
2013-04-15 13:01:00,78.0,47.0,-100.00,ENE,59,6.0,18.0,33,0.00,,,0.00,1169.000000,,2013-04-15 20:01:00,
2013-04-15 13:02:00,78.0,47.0,-100.00,ENE,59,6.0,18.0,33,0.00,,,0.00,1169.000000,,2013-04-15 20:02:00,
2013-04-15 13:11:00,78.0,47.0,-100.00,ENE,59,6.0,18.0,33,0.00,,,0.00,1169.000000,,2013-04-15 20:11:00,
2013-04-15 13:22:00,78.0,47.0,-100.00,ENE,59,6.0,18.0,33,0.00,,,0.00,1169.000000,,2013-04-15 20:22:00,
2013-04-15 13:52:00,81.0,45.0,-100.00,WSW,252,10.0,21.0,28,0.00,,,0.00,1193.000000,,2013-04-15 20:52:00,
2013-04-15 14:02:00,81.0,45.0,-100.00,WSW,252,10.0,21.0,28,0.00,,,0.00,1193.000000,,2013-04-15 21:02:00,
2013-04-15 14:12:00,81.0,45.0,-100.00,WSW,252,10.0,21.0,28,0.00,,,0.00,1193.000000,,2013-04-15 21:12:00,
2013-04-15 14:22:00,81.0,45.0,-100.00,WSW,252,10.0,21.0,28,0.00,,,0.00,1193.000000,,2013-04-15 21:22:00,
2013-04-15 14:53:00,84.0,42.0,-100.00,WSW,238,14.0,23.0,23,0.00,,,0.00,1132.000000,,2013-04-15 21:53:00,
2013-04-15 15:02:00,84.0,42.0,-100.00,WSW,238,14.0,23.0,23,0.00,,,0.00,1132.000000,,2013-04-15 22:02:00,
2013-04-15 15:13:00,84.0,42.0,-100.00,WSW,238,14.0,23.0,23,0.00,,,0.00,1132.000000,,2013-04-15 22:13:00,
2013-04-15 15:22:00,84.0,42.0,-100.00,WSW,238,14.0,23.0,23,0.00,,,0.00,1132.000000,,2013-04-15 22:22:00,
2013-04-15 15:52:00,83.0,42.0,-100.00,West,268,14.0,26.0,24,0.00,,,0.00,996.000000,,2013-04-15 22:52:00,
2013-04-15 16:02:00,83.0,42.0,-100.00,West,268,14.0,26.0,24,0.00,,,0.00,996.000000,,2013-04-15 23:02:00,
2013-04-15 16:12:00,83.0,42.0,-100.00,West,268,14.0,26.0,24,0.00,,,0.00,996.000000,,2013-04-15 23:12:00,
2013-04-15 16:22:00,83.0,42.0,-100.00,West,268,14.0,26.0,24,0.00,,,0.00,996.000000,,2013-04-15 23:22:00,
2013-04-15 16:52:00,85.0,38.0,-100.00,West,263,15.0,26.0,19,0.00,,,0.00,782.000000,,2013-04-15 23:52:00,
2013-04-15 17:12:00,85.0,38.0,-100.00,West,263,15.0,26.0,19,0.00,,,0.00,782.000000,,2013-04-16 00:12:00,
2013-04-15 17:22:00,85.0,38.0,-100.00,West,263,15.0,26.0,19,0.00,,,0.00,782.000000,,2013-04-16 00:22:00,
2013-04-15 17:52:00,83.0,39.0,-100.00,West,265,13.0,25.0,21,0.00,,,0.00,511.000000,,2013-04-16 00:52:00,
2013-04-15 18:02:00,83.0,39.0,-100.00,West,265,13.0,25.0,21,0.00,,,0.00,511.000000,,2013-04-16 01:02:00,
2013-04-15 18:12:00,83.0,39.0,-100.00,West,265,13.0,25.0,21,0.00,,,0.00,511.000000,,2013-04-16 01:12:00,
2013-04-15 18:22:00,83.0,39.0,-100.00,West,265,13.0,25.0,21,0.00,,,0.00,511.000000,,2013-04-16 01:22:00,
2013-04-15 18:52:00,80.0,40.0,-100.00,West,269,9.0,21.0,24,0.00,,,0.00,103.000000,,2013-04-16 01:52:00,
2013-04-15 19:02:00,80.0,40.0,-100.00,West,269,9.0,21.0,24,0.00,,,0.00,103.000000,,2013-04-16 02:02:00,
2013-04-15 19:12:00,80.0,40.0,-100.00,West,269,9.0,21.0,24,0.00,,,0.00,103.000000,,2013-04-16 02:12:00,
2013-04-15 19:21:00,80.0,40.0,-100.00,West,269,9.0,21.0,24,0.00,,,0.00,103.000000,,2013-04-16 02:21:00,
2013-04-15 19:52:00,73.0,38.0,-100.00,WNW,293,11.0,19.0,28,0.00,,,0.00,21.000000,,2013-04-16 02:52:00,
2013-04-15 20:02:00,73.0,38.0,-100.00,WNW,293,11.0,19.0,28,0.00,,,0.00,21.000000,,2013-04-16 03:02:00,
2013-04-15 20:12:00,73.0,38.0,-100.00,WNW,293,11.0,19.0,28,0.00,,,0.00,21.000000,,2013-04-16 03:12:00,
2013-04-15 20:22:00,73.0,38.0,-100.00,WNW,293,11.0,19.0,28,0.00,,,0.00,21.000000,,2013-04-16 03:22:00,
2013-04-15 20:52:00,70.0,39.0,-100.00,WNW,298,7.0,18.0,32,0.00,,,0.00,0.000000,,2013-04-16 03:52:00,
2013-04-15 21:02:00,70.0,39.0,-100.00,WNW,298,7.0,18.0,32,0.00,,,0.00,0.000000,,2013-04-16 04:02:00,
2013-04-15 21:12:00,70.0,39.0,-100.00,WNW,298,7.0,18.0,32,0.00,,,0.00,0.000000,,2013-04-16 04:12:00,
2013-04-15 21:23:00,70.0,39.0,-100.00,WNW,298,7.0,18.0,32,0.00,,,0.00,0.000000,,2013-04-16 04:23:00,
2013-04-15 21:53:00,69.0,38.0,-100.00,NW,321,5.0,16.0,32,0.00,,,0.00,0.000000,,2013-04-16 04:53:00,
2013-04-15 22:02:00,69.0,38.0,-100.00,NW,321,5.0,16.0,32,0.00,,,0.00,0.000000,,2013-04-16 05:02:00,
2013-04-15 22:12:00,69.0,38.0,-100.00,NW,321,5.0,16.0,32,0.00,,,0.00,0.000000,,2013-04-16 05:12:00,
2013-04-15 22:22:00,69.0,38.0,-100.00,NW,321,5.0,16.0,32,0.00,,,0.00,0.000000,,2013-04-16 05:22:00,
2013-04-15 22:52:00,66.0,35.0,-100.00,WSW,258,9.0,17.0,32,0.00,,,0.00,0.000000,,2013-04-16 05:52:00,
2013-04-15 23:02:00,66.0,35.0,-100.00,WSW,258,9.0,17.0,32,0.00,,,0.00,0.000000,,2013-04-16 06:02:00,
2013-04-15 23:12:00,66.0,35.0,-100.00,WSW,258,9.0,17.0,32,0.00,,,0.00,0.000000,,2013-04-16 06:12:00,
2013-04-15 23:22:00,66.0,35.0,-100.00,WSW,258,9.0,17.0,32,0.00,,,0.00,0.000000,,2013-04-16 06:22:00,
2013-04-15 23:52:00,64.0,36.0,-100.00,WNW,293,5.0,14.0,35,0.00,,,0.00,0.000000,,2013-04-16 06:52:00,